createdAt,value
2017-03-07T13:25:36.543Z,19
2017-03-07T13:26:35.492Z,19
2017-03-07T13:42:38.020Z,5.7
2017-03-07T13:45:10.470Z,5.5
2017-03-07T13:47:42.953Z,4.9
2017-03-07T13:50:15.424Z,4.4
2017-03-07T13:52:47.890Z,4.5
2017-03-07T13:55:20.402Z,4
2017-03-07T13:57:52.866Z,4
2017-03-07T14:00:25.768Z,3.6
2017-03-07T14:02:58.242Z,3.6
2017-03-07T14:05:30.827Z,3.5
2017-03-07T14:08:03.311Z,3.4
2017-03-07T14:10:35.870Z,3.3
2017-03-07T14:13:08.375Z,3.1
2017-03-07T14:15:40.911Z,3.1
2017-03-07T14:18:13.478Z,3
2017-03-07T14:20:46.194Z,2.9
2017-03-07T14:23:18.742Z,3
2017-03-07T14:25:51.656Z,3
2017-03-07T14:28:24.304Z,2.9
2017-03-07T14:30:57.334Z,2.9
2017-03-07T14:33:30.548Z,2.9
2017-03-07T14:36:03.557Z,2.9
2017-03-07T14:38:36.419Z,2.7
2017-03-07T14:41:09.657Z,2.9
2017-03-07T14:43:42.608Z,2.8
2017-03-07T14:46:15.571Z,2.8
2017-03-07T14:48:48.559Z,2.5
2017-03-07T14:51:22.066Z,2.5
2017-03-07T14:53:56.295Z,2.5
2017-03-07T14:56:29.733Z,2.5
2017-03-07T14:59:03.570Z,2.6
2017-03-07T15:01:37.769Z,2.6
2017-03-07T15:04:12.368Z,2.7
2017-03-07T15:06:46.402Z,2.5
2017-03-07T15:09:19.507Z,2.4
2017-03-07T15:11:52.938Z,2.5
2017-03-07T15:14:26.200Z,2.5
2017-03-07T15:17:00.211Z,2.5
2017-03-07T15:19:34.545Z,2.4
2017-03-07T15:22:07.058Z,2.5
2017-03-07T15:24:39.527Z,2.6
2017-03-07T15:27:12.028Z,2.4
2017-03-07T15:29:44.495Z,2.5
2017-03-07T15:32:17.391Z,2.5
2017-03-07T15:34:50.306Z,2.5
2017-03-07T15:37:22.786Z,2.4
2017-03-07T15:39:55.654Z,2.4
2017-03-07T15:42:28.559Z,2.3
2017-03-07T15:45:01.124Z,2.4
2017-03-07T15:47:33.599Z,2.3
2017-03-07T15:50:06.066Z,2.3
2017-03-07T15:52:38.542Z,2.3
2017-03-07T15:55:11.021Z,2.1
2017-03-07T15:57:43.520Z,2.2
2017-03-07T16:00:15.951Z,2.2
2017-03-07T16:02:48.847Z,2.1
2017-03-07T16:05:21.333Z,2.2
2017-03-07T16:07:53.875Z,2.1
2017-03-07T16:10:26.338Z,2.1
2017-03-07T16:12:58.783Z,2.1
2017-03-07T16:15:31.233Z,2.1
2017-03-07T16:18:04.122Z,2
2017-03-07T16:20:37.591Z,2
2017-03-07T16:23:10.495Z,2
2017-03-07T16:25:43.578Z,2
2017-03-07T16:28:23.412Z,1.9
2017-03-07T16:30:58.785Z,1.9
2017-03-07T16:33:32.734Z,1.8
2017-03-07T16:36:06.067Z,1.8
2017-03-07T16:38:39.731Z,1.8
2017-03-07T16:41:13.182Z,1.8
2017-03-07T16:43:48.040Z,1.8
2017-03-07T16:46:22.428Z,1.7
2017-03-07T16:48:55.466Z,1.7
2017-03-07T16:51:28.737Z,1.8
2017-03-07T16:54:01.669Z,1.7
2017-03-07T16:56:34.843Z,1.7
2017-03-07T16:59:07.773Z,1.6
2017-03-07T17:01:40.862Z,1.6
2017-03-07T17:04:13.385Z,1.6
2017-03-07T17:06:47.225Z,1.6
2017-03-07T17:09:20.712Z,1.5
2017-03-07T17:11:53.816Z,1.5
2017-03-07T17:14:26.798Z,1.6
2017-03-07T17:16:59.595Z,1.6
2017-03-07T17:19:32.701Z,1.6
2017-03-07T17:22:05.855Z,1.5
2017-03-07T17:24:39.218Z,1.6
2017-03-07T17:27:12.502Z,1.5
2017-03-07T17:29:45.226Z,1.3
2017-03-07T17:32:18.254Z,1.4
2017-03-07T17:34:51.064Z,1.6
2017-03-07T17:37:24.133Z,1.6
2017-03-07T17:39:56.991Z,1.5
2017-03-07T17:42:30.242Z,1.6
2017-03-07T17:45:03.587Z,1.6
2017-03-07T17:47:37.069Z,1.5
2017-03-07T17:50:10.098Z,1.5
2017-03-07T17:52:43.024Z,1.4
2017-03-07T17:55:15.486Z,1.5
2017-03-07T17:57:48.459Z,1.5
2017-03-07T18:00:21.220Z,1.6
2017-03-07T18:02:54.499Z,1.5
2017-03-07T18:05:27.941Z,1.5
2017-03-07T18:08:01.518Z,1.6
2017-03-07T18:10:34.983Z,1.6
2017-03-07T18:13:07.521Z,1.5
2017-03-07T18:15:40.647Z,1.5
2017-03-07T18:18:13.186Z,1.5
2017-03-07T18:20:46.063Z,1.5
2017-03-07T18:23:18.521Z,1.4
2017-03-07T18:25:51.001Z,1.5
2017-03-07T18:28:23.475Z,1.6
2017-03-07T18:30:56.337Z,1.5
2017-03-07T18:33:28.906Z,1.4
2017-03-07T18:36:01.437Z,1.4
2017-03-07T18:38:33.912Z,2
2017-03-07T18:41:06.537Z,1.8
2017-03-07T18:43:39.047Z,1.9
2017-03-07T18:46:11.521Z,1.6
2017-03-07T18:48:43.993Z,1.6
2017-03-07T18:51:16.659Z,1.4
2017-03-07T18:53:49.194Z,1.4
2017-03-07T18:56:22.148Z,1.5
2017-03-07T18:58:54.616Z,1.5
2017-03-07T19:01:27.057Z,1.4
2017-03-07T19:03:59.502Z,1.5
2017-03-07T19:06:31.978Z,1.4
2017-03-07T19:09:04.867Z,1.4
2017-03-07T19:11:37.338Z,1.4
2017-03-07T19:14:09.796Z,1.4
2017-03-07T19:16:42.277Z,1.3
2017-03-07T19:19:15.227Z,1.4
2017-03-07T19:21:47.680Z,1.4
2017-03-07T19:24:20.219Z,1.4
2017-03-07T19:26:53.115Z,1.4
2017-03-07T19:29:25.590Z,1.3
2017-03-07T19:31:58.462Z,1.4
2017-03-07T19:34:30.943Z,1.4
2017-03-07T19:37:03.423Z,1.4
2017-03-07T19:39:35.935Z,1.4
2017-03-07T19:42:08.397Z,1.3
2017-03-07T19:44:40.868Z,1.4
2017-03-07T19:47:13.365Z,1.3
2017-03-07T19:49:45.843Z,1.3
2017-03-07T19:52:18.302Z,1.3
2017-03-07T19:54:51.493Z,1.3
2017-03-07T19:57:24.007Z,1.3
2017-03-07T19:59:56.482Z,1.3
2017-03-07T20:02:28.948Z,1.3
2017-03-07T20:05:02.362Z,1.4
2017-03-07T20:07:34.843Z,1.6
2017-03-07T20:10:07.306Z,1.6
2017-03-07T20:12:39.761Z,1.5
2017-03-07T20:15:12.214Z,1.5
2017-03-07T20:17:45.112Z,1.5
2017-03-07T20:20:17.587Z,1.3
2017-03-07T20:22:51.341Z,1.4
2017-03-07T20:25:24.213Z,1.4
2017-03-07T20:27:57.250Z,1.3
2017-03-07T20:30:30.783Z,1.2
2017-03-07T20:33:03.307Z,1.2
2017-03-07T20:35:35.807Z,1.1
2017-03-07T20:38:08.699Z,1.1
2017-03-07T20:40:41.168Z,1.1
2017-03-07T20:43:13.651Z,1.2
2017-03-07T20:45:46.106Z,1.2
2017-03-07T20:48:18.583Z,1.2
2017-03-07T20:50:51.362Z,1.2
2017-03-07T20:53:23.839Z,1.1
2017-03-07T20:55:57.155Z,1.2
2017-03-07T20:58:29.895Z,1.3
2017-03-07T21:01:02.793Z,1.2
2017-03-07T21:03:35.345Z,1.2
2017-03-07T21:06:08.250Z,1.1
2017-03-07T21:08:40.730Z,1.2
2017-03-07T21:11:13.593Z,1.2
2017-03-07T21:13:46.492Z,1.3
2017-03-07T21:16:18.981Z,1.4
2017-03-07T21:18:51.447Z,1.5
2017-03-07T21:21:23.960Z,1.6
2017-03-07T21:23:56.856Z,1.3
2017-03-07T21:26:29.315Z,1.1
2017-03-07T21:29:02.216Z,1.6
2017-03-07T21:31:34.667Z,1.5
2017-03-07T21:34:07.186Z,1.7
2017-03-07T21:36:39.687Z,1.7
2017-03-07T21:39:13.114Z,1.3
2017-03-07T21:41:45.585Z,1.5
2017-03-07T21:44:18.053Z,1.4
2017-03-07T21:46:50.519Z,1.3
2017-03-07T21:49:22.997Z,1.2
2017-03-07T21:51:56.499Z,1.1
2017-03-07T21:54:28.948Z,1.3
2017-03-07T21:57:01.407Z,1.4
2017-03-07T21:59:34.057Z,1.7
2017-03-07T22:02:06.520Z,1.4
2017-03-07T22:04:38.987Z,1.4
2017-03-07T22:07:11.438Z,1.3
2017-03-07T22:09:44.356Z,1.3
2017-03-07T22:12:16.847Z,1.3
2017-03-07T22:14:49.327Z,1.3
2017-03-07T22:17:22.198Z,1.2
2017-03-07T22:19:54.708Z,1.2
2017-03-07T22:22:27.174Z,1.2
2017-03-07T22:24:59.640Z,1.2
2017-03-07T22:27:32.119Z,1.3
2017-03-07T22:30:04.587Z,1.2
2017-03-07T22:32:37.039Z,1.2
2017-03-07T22:35:09.540Z,1.1
2017-03-07T22:37:42.030Z,1.1
2017-03-07T22:40:14.495Z,1
2017-03-07T22:42:47.373Z,1
2017-03-07T22:45:19.843Z,1.2
2017-03-07T22:47:52.319Z,1.2
2017-03-07T22:50:25.204Z,1.2
2017-03-07T22:52:57.705Z,1.1
2017-03-07T22:55:30.182Z,1.1
2017-03-07T22:58:02.631Z,1.2
2017-03-07T23:00:35.518Z,1
2017-03-07T23:03:07.994Z,1
2017-03-07T23:05:40.887Z,1
2017-03-07T23:08:13.782Z,1.1
2017-03-07T23:10:46.249Z,1.1
2017-03-07T23:13:18.727Z,1.1
2017-03-07T23:15:51.593Z,1
2017-03-07T23:18:24.061Z,1
2017-03-07T23:20:56.530Z,0.9
2017-03-07T23:23:28.993Z,0.9
2017-03-07T23:26:01.488Z,1
2017-03-07T23:28:33.923Z,1.1
2017-03-07T23:31:06.402Z,0.9
2017-03-07T23:33:38.887Z,0.8
2017-03-07T23:36:12.226Z,0.9
2017-03-07T23:38:45.155Z,0.9
2017-03-07T23:41:17.678Z,1
2017-03-07T23:43:50.139Z,1.1
2017-03-07T23:46:22.627Z,1.1
2017-03-07T23:48:55.949Z,1.1
2017-03-07T23:51:28.838Z,1
2017-03-07T23:54:01.742Z,1
2017-03-07T23:56:34.679Z,1
2017-03-07T23:59:07.577Z,1
